Coalton, Oklahoma
Current Conditions -  °F | °C
As of 3:35 PM on Friday 24 Oct 2014 (Local Time) from KOKM Reporting Station
Clear Clear  
Wind Chill: 80°   Ceiling: Unl
Heat Index: 81°   Visibility: 10mi
Dew Point: 63°   Wind: 10mph
Humidity: 55%   Direction: 190°S
Pressure: 30.04"   Gusts: 17mph
Location:  35.4729°N, 95.9709°W
Report Text: KOKM 242035Z AUTO 19009G15KT 10SM CLR 27/17 A3004 RMK AO2 T02660170
Loading
Personal Weather Stations






























Interactive Weather Map
Tropical Storm Tracking
New forecast layout! Learn more

10-Day Weather Forecast

Advertisements
Track Severe Weather on mobile